Time,TemperatureF,DewpointF,PressureIn,WindDirection,WindDirectionDegrees,WindSpeedMPH,WindSpeedGustMPH,Humidity,HourlyPrecipIn,Conditions,Clouds,dailyrainin,SoftwareType,DateUTC
2013-07-17 00:02:00,77.0,61.0,28.70,NE,41,0.0,5.0,57,0.00,,,0.00,,2013-07-17 05:02:00,
2013-07-17 00:11:00,76.0,63.0,28.70,SSW,204,2.0,5.0,64,0.00,,,0.00,,2013-07-17 05:11:00,
2013-07-17 00:21:00,76.0,63.0,28.70,ESE,106,2.0,4.0,65,0.00,,,0.00,,2013-07-17 05:21:00,
2013-07-17 00:32:00,76.0,63.0,28.70,ESE,106,2.0,4.0,65,0.00,,,0.00,,2013-07-17 05:32:00,
2013-07-17 00:43:00,75.0,62.0,28.73,South,184,0.0,4.0,65,0.00,,,0.00,,2013-07-17 05:43:00,
2013-07-17 00:52:00,75.0,62.0,28.73,South,184,0.0,4.0,65,0.00,,,0.00,,2013-07-17 05:52:00,
2013-07-17 01:01:00,74.0,62.0,28.73,South,184,0.0,4.0,67,0.00,,,0.00,,2013-07-17 06:01:00,
2013-07-17 01:11:00,74.0,62.0,28.73,South,184,0.0,4.0,67,0.00,,,0.00,,2013-07-17 06:11:00,
2013-07-17 01:22:00,73.0,63.0,28.73,SSW,198,0.0,0.0,70,0.00,,,0.00,,2013-07-17 06:22:00,
2013-07-17 01:32:00,73.0,63.0,28.70,WSW,255,0.0,3.0,71,0.00,,,0.00,,2013-07-17 06:32:00,
2013-07-17 01:43:00,73.0,64.0,28.70,WSW,248,0.0,3.0,74,0.00,,,0.00,,2013-07-17 06:43:00,
2013-07-17 01:52:00,73.0,65.0,28.70,WSW,248,0.0,3.0,75,0.00,,,0.00,,2013-07-17 06:52:00,
2013-07-17 02:01:00,72.0,64.0,28.70,WSW,248,0.0,3.0,75,0.00,,,0.00,,2013-07-17 07:01:00,
2013-07-17 02:11:00,72.0,64.0,28.70,WSW,248,0.0,3.0,75,0.00,,,0.00,,2013-07-17 07:11:00,
2013-07-17 02:22:00,72.0,64.0,28.70,WSW,248,0.0,0.0,76,0.00,,,0.00,,2013-07-17 07:22:00,
2013-07-17 02:32:00,72.0,65.0,28.70,WSW,250,0.0,3.0,79,0.00,,,0.00,,2013-07-17 07:32:00,
2013-07-17 02:42:00,72.0,65.0,28.70,WSW,250,0.0,3.0,79,0.00,,,0.00,,2013-07-17 07:42:00,
2013-07-17 02:52:00,72.0,65.0,28.70,WSW,250,0.0,3.0,79,0.00,,,0.00,,2013-07-17 07:52:00,
2013-07-17 03:01:00,72.0,65.0,28.70,WSW,250,0.0,3.0,79,0.00,,,0.00,,2013-07-17 08:01:00,
2013-07-17 03:11:00,72.0,65.0,28.70,WSW,250,0.0,3.0,79,0.00,,,0.00,,2013-07-17 08:11:00,
2013-07-17 03:22:00,72.0,65.0,28.70,WSW,246,0.0,0.0,79,0.00,,,0.00,,2013-07-17 08:22:00,
2013-07-17 03:32:00,72.0,65.0,28.70,WSW,246,0.0,0.0,79,0.00,,,0.00,,2013-07-17 08:32:00,
2013-07-17 03:43:00,71.0,65.0,28.70,WSW,246,0.0,0.0,80,0.00,,,0.00,,2013-07-17 08:43:00,
2013-07-17 03:53:00,71.0,65.0,28.70,WSW,246,0.0,3.0,81,0.00,,,0.00,,2013-07-17 08:53:00,
2013-07-17 04:02:00,71.0,65.0,28.70,WSW,246,0.0,3.0,81,0.00,,,0.00,,2013-07-17 09:02:00,
2013-07-17 04:12:00,71.0,65.0,28.70,WSW,246,0.0,3.0,81,0.00,,,0.00,,2013-07-17 09:12:00,
2013-07-17 04:22:00,71.0,65.0,28.70,WSW,246,0.0,3.0,81,0.00,,,0.00,,2013-07-17 09:22:00,
2013-07-17 04:32:00,71.0,65.0,28.70,WSW,246,0.0,0.0,82,0.00,,,0.00,,2013-07-17 09:32:00,
2013-07-17 04:43:00,71.0,65.0,28.70,WSW,246,0.0,0.0,82,0.00,,,0.00,,2013-07-17 09:43:00,
2013-07-17 04:52:00,71.0,65.0,28.70,WSW,246,0.0,0.0,82,0.00,,,0.00,,2013-07-17 09:52:00,
2013-07-17 05:01:00,71.0,65.0,28.70,WSW,246,0.0,0.0,82,0.00,,,0.00,,2013-07-17 10:01:00,
2013-07-17 05:11:00,71.0,65.0,28.70,WSW,246,0.0,0.0,82,0.00,,,0.00,,2013-07-17 10:11:00,
2013-07-17 05:22:00,71.0,65.0,28.70,WSW,246,0.0,0.0,82,0.00,,,0.00,,2013-07-17 10:22:00,
2013-07-17 05:43:00,71.0,66.0,28.70,WSW,246,0.0,0.0,85,0.00,,,0.00,,2013-07-17 10:43:00,
2013-07-17 05:52:00,71.0,66.0,28.70,WSW,246,0.0,0.0,85,0.00,,,0.00,,2013-07-17 10:52:00,
2013-07-17 06:01:00,71.0,66.0,28.70,WSW,246,0.0,0.0,85,0.00,,,0.00,,2013-07-17 11:01:00,
2013-07-17 06:11:00,70.0,65.0,28.73,WSW,246,0.0,0.0,85,0.00,,,0.00,,2013-07-17 11:11:00,
2013-07-17 06:22:00,70.0,65.0,28.73,WSW,246,0.0,0.0,85,0.00,,,0.00,,2013-07-17 11:22:00,
2013-07-17 06:32:00,70.0,65.0,28.73,WSW,246,0.0,0.0,85,0.00,,,0.00,,2013-07-17 11:32:00,
2013-07-17 06:42:00,70.0,65.0,28.73,WSW,246,0.0,0.0,85,0.00,,,0.00,,2013-07-17 11:42:00,
2013-07-17 06:52:00,70.0,65.0,28.73,WSW,246,0.0,0.0,85,0.00,,,0.00,,2013-07-17 11:52:00,
2013-07-17 07:01:00,69.0,65.0,28.73,WSW,246,0.0,0.0,87,0.00,,,0.00,,2013-07-17 12:01:00,
2013-07-17 07:12:00,69.0,65.0,28.73,WSW,246,0.0,0.0,87,0.00,,,0.00,,2013-07-17 12:12:00,
2013-07-17 07:22:00,69.0,65.0,28.73,WSW,246,0.0,0.0,87,0.00,,,0.00,,2013-07-17 12:22:00,
2013-07-17 07:32:00,70.0,66.0,28.73,WSW,246,0.0,0.0,88,0.00,,,0.00,,2013-07-17 12:32:00,
2013-07-17 07:42:00,70.0,66.0,28.73,WSW,246,0.0,0.0,88,0.00,,,0.00,,2013-07-17 12:42:00,
2013-07-17 07:53:00,71.0,68.0,28.73,WSW,246,0.0,0.0,89,0.00,,,0.00,,2013-07-17 12:53:00,
2013-07-17 08:01:00,71.0,68.0,28.73,WSW,246,0.0,0.0,89,0.00,,,0.00,,2013-07-17 13:01:00,
2013-07-17 08:12:00,72.0,69.0,28.73,WSW,241,0.0,0.0,89,0.00,,,0.00,,2013-07-17 13:12:00,
2013-07-17 08:22:00,74.0,70.0,28.73,SW,232,0.0,2.0,88,0.00,,,0.00,,2013-07-17 13:22:00,
2013-07-17 08:32:00,74.0,70.0,28.73,SW,232,0.0,2.0,88,0.00,,,0.00,,2013-07-17 13:32:00,
2013-07-17 08:43:00,77.0,71.0,28.73,NNW,327,0.0,3.0,81,0.00,,,0.00,,2013-07-17 13:43:00,
2013-07-17 08:52:00,77.0,71.0,28.73,NNW,327,0.0,3.0,81,0.00,,,0.00,,2013-07-17 13:52:00,
2013-07-17 09:02:00,77.0,71.0,28.73,NNW,327,0.0,3.0,81,0.00,,,0.00,,2013-07-17 14:02:00,
2013-07-17 09:11:00,80.0,68.0,28.76,North,5,0.0,5.0,67,0.00,,,0.00,,2013-07-17 14:11:00,
2013-07-17 09:22:00,80.0,67.0,28.76,North,5,0.0,0.0,64,0.00,,,0.00,,2013-07-17 14:22:00,
2013-07-17 09:32:00,81.0,67.0,28.76,NW,313,0.0,5.0,63,0.00,,,0.00,,2013-07-17 14:32:00,
2013-07-17 09:43:00,81.0,67.0,28.76,NW,313,0.0,5.0,63,0.00,,,0.00,,2013-07-17 14:43:00,
2013-07-17 09:52:00,81.0,67.0,28.76,NW,313,0.0,5.0,63,0.00,,,0.00,,2013-07-17 14:52:00,
2013-07-17 10:01:00,81.0,67.0,28.76,NW,313,0.0,5.0,63,0.00,,,0.00,,2013-07-17 15:01:00,
2013-07-17 10:12:00,84.0,65.0,28.73,SE,144,0.0,5.0,53,0.00,,,0.00,,2013-07-17 15:12:00,
2013-07-17 10:22:00,85.0,65.0,28.73,NNE,22,0.0,3.0,52,0.00,,,0.00,,2013-07-17 15:22:00,
2013-07-17 10:32:00,85.0,65.0,28.73,North,8,0.0,3.0,52,0.00,,,0.00,,2013-07-17 15:32:00,
2013-07-17 10:42:00,85.0,65.0,28.73,North,8,0.0,3.0,52,0.00,,,0.00,,2013-07-17 15:42:00,
2013-07-17 10:52:00,87.0,65.0,28.73,SE,129,0.0,5.0,49,0.00,,,0.00,,2013-07-17 15:52:00,
2013-07-17 11:01:00,87.0,65.0,28.73,SE,129,0.0,5.0,49,0.00,,,0.00,,2013-07-17 16:01:00,
2013-07-17 11:11:00,87.0,64.0,28.76,ESE,115,0.0,5.0,46,0.00,,,0.00,,2013-07-17 16:11:00,
2013-07-17 11:21:00,87.0,64.0,28.76,ESE,115,0.0,5.0,46,0.00,,,0.00,,2013-07-17 16:21:00,
2013-07-17 11:33:00,88.0,63.0,28.76,SSE,168,2.0,5.0,43,0.00,,,0.00,,2013-07-17 16:33:00,
2013-07-17 11:42:00,88.0,63.0,28.76,SSE,168,2.0,5.0,43,0.00,,,0.00,,2013-07-17 16:42:00,
2013-07-17 11:52:00,88.0,63.0,28.76,SSE,168,2.0,5.0,43,0.00,,,0.00,,2013-07-17 16:52:00,
2013-07-17 12:01:00,86.0,65.0,28.73,WNW,303,3.0,5.0,49,0.00,,,0.00,,2013-07-17 17:01:00,
2013-07-17 12:11:00,88.0,64.0,28.73,South,190,0.0,5.0,45,0.00,,,0.00,,2013-07-17 17:11:00,
2013-07-17 12:22:00,88.0,64.0,28.73,SSW,196,0.0,4.0,45,0.00,,,0.00,,2013-07-17 17:22:00,
2013-07-17 12:32:00,87.0,62.0,28.73,WSW,243,0.0,4.0,44,0.00,,,0.00,,2013-07-17 17:32:00,
2013-07-17 12:43:00,87.0,63.0,28.73,SW,231,0.0,6.0,45,0.00,,,0.00,,2013-07-17 17:43:00,
2013-07-17 12:52:00,86.0,63.0,28.73,ESE,103,0.0,6.0,46,0.00,,,0.00,,2013-07-17 17:52:00,
2013-07-17 13:01:00,86.0,63.0,28.73,ESE,103,0.0,6.0,46,0.00,,,0.00,,2013-07-17 18:01:00,
2013-07-17 13:11:00,86.0,63.0,28.73,ESE,103,0.0,6.0,46,0.00,,,0.00,,2013-07-17 18:11:00,
2013-07-17 13:22:00,86.0,63.0,28.73,ESE,103,0.0,6.0,46,0.00,,,0.00,,2013-07-17 18:22:00,
2013-07-17 13:32:00,86.0,63.0,28.73,ESE,103,0.0,6.0,46,0.00,,,0.00,,2013-07-17 18:32:00,
2013-07-17 13:43:00,91.0,62.0,28.73,West,275,2.0,5.0,38,0.00,,,0.00,,2013-07-17 18:43:00,
2013-07-17 13:52:00,91.0,62.0,28.73,South,171,2.0,5.0,38,0.00,,,0.00,,2013-07-17 18:52:00,
2013-07-17 14:01:00,91.0,62.0,28.73,South,171,2.0,5.0,38,0.00,,,0.00,,2013-07-17 19:01:00,
2013-07-17 14:11:00,89.0,61.0,28.70,South,173,0.0,7.0,40,0.00,,,0.00,,2013-07-17 19:11:00,
2013-07-17 14:22:00,91.0,63.0,28.70,SSE,147,3.0,5.0,40,0.00,,,0.00,,2013-07-17 19:22:00,
2013-07-17 14:32:00,91.0,63.0,28.70,SSE,147,3.0,5.0,40,0.00,,,0.00,,2013-07-17 19:32:00,
2013-07-17 14:43:00,91.0,63.0,28.70,West,259,0.0,5.0,39,0.00,,,0.00,,2013-07-17 19:43:00,
2013-07-17 14:53:00,91.0,63.0,28.70,West,259,0.0,5.0,39,0.00,,,0.00,,2013-07-17 19:53:00,
2013-07-17 15:01:00,91.0,63.0,28.70,West,259,0.0,5.0,39,0.00,,,0.00,,2013-07-17 20:01:00,
2013-07-17 15:11:00,91.0,62.0,28.67,East,89,0.0,5.0,38,0.00,,,0.00,,2013-07-17 20:11:00,
2013-07-17 15:22:00,91.0,62.0,28.67,East,89,0.0,5.0,38,0.00,,,0.00,,2013-07-17 20:22:00,
2013-07-17 15:33:00,91.0,62.0,28.67,East,89,0.0,5.0,38,0.00,,,0.00,,2013-07-17 20:33:00,
2013-07-17 15:43:00,90.0,61.0,28.67,SE,139,2.0,5.0,38,0.00,,,0.00,,2013-07-17 20:43:00,
2013-07-17 15:52:00,86.0,62.0,28.67,SE,137,0.0,7.0,45,0.00,,,0.00,,2013-07-17 20:52:00,
2013-07-17 16:01:00,84.0,67.0,28.67,SE,144,0.0,7.0,56,0.00,,,0.00,,2013-07-17 21:01:00,
2013-07-17 16:12:00,84.0,67.0,28.67,SE,144,0.0,7.0,56,0.00,,,0.00,,2013-07-17 21:12:00,
2013-07-17 16:22:00,84.0,67.0,28.67,SE,144,0.0,7.0,56,0.00,,,0.00,,2013-07-17 21:22:00,
2013-07-17 16:32:00,85.0,67.0,28.67,SSW,205,0.0,3.0,55,0.00,,,0.00,,2013-07-17 21:32:00,
2013-07-17 16:42:00,86.0,65.0,28.64,South,180,0.0,3.0,50,0.00,,,0.00,,2013-07-17 21:42:00,
2013-07-17 16:52:00,87.0,64.0,28.64,SSW,202,0.0,3.0,47,0.00,,,0.00,,2013-07-17 21:52:00,
2013-07-17 17:01:00,87.0,64.0,28.64,SSW,202,0.0,3.0,47,0.00,,,0.00,,2013-07-17 22:01:00,
2013-07-17 17:11:00,88.0,63.0,28.64,South,173,0.0,3.0,43,0.00,,,0.00,,2013-07-17 22:11:00,
2013-07-17 17:21:00,89.0,62.0,28.64,SE,128,0.0,3.0,41,0.00,,,0.00,,2013-07-17 22:21:00,
2013-07-17 17:32:00,89.0,62.0,28.64,SSE,153,2.0,3.0,41,0.00,,,0.00,,2013-07-17 22:32:00,
2013-07-17 17:43:00,89.0,62.0,28.64,SSE,153,2.0,3.0,41,0.00,,,0.00,,2013-07-17 22:43:00,
2013-07-17 17:53:00,89.0,62.0,28.64,SSE,153,2.0,3.0,41,0.00,,,0.00,,2013-07-17 22:53:00,
2013-07-17 18:01:00,89.0,63.0,28.64,NNE,18,3.0,5.0,42,0.00,,,0.00,,2013-07-17 23:01:00,
2013-07-17 18:11:00,89.0,63.0,28.64,NNE,18,3.0,5.0,42,0.00,,,0.00,,2013-07-17 23:11:00,
2013-07-17 18:22:00,89.0,62.0,28.64,SSE,160,0.0,3.0,41,0.00,,,0.00,,2013-07-17 23:22:00,
2013-07-17 18:32:00,89.0,61.0,28.64,NE,55,0.0,3.0,40,0.00,,,0.00,,2013-07-17 23:32:00,
2013-07-17 18:42:00,89.0,61.0,28.64,NE,55,0.0,3.0,40,0.00,,,0.00,,2013-07-17 23:42:00,
2013-07-17 18:52:00,89.0,61.0,28.61,NNE,25,3.0,3.0,40,0.00,,,0.00,,2013-07-17 23:52:00,
2013-07-17 19:01:00,88.0,61.0,28.61,North,9,0.0,3.0,41,0.00,,,0.00,,2013-07-18 00:01:00,
2013-07-17 19:11:00,88.0,61.0,28.61,North,9,0.0,3.0,41,0.00,,,0.00,,2013-07-18 00:11:00,
2013-07-17 19:22:00,88.0,61.0,28.61,North,9,0.0,3.0,41,0.00,,,0.00,,2013-07-18 00:22:00,
2013-07-17 19:33:00,87.0,62.0,28.61,West,267,0.0,0.0,43,0.00,,,0.00,,2013-07-18 00:33:00,
2013-07-17 19:43:00,87.0,64.0,28.61,WSW,244,3.0,3.0,46,0.00,,,0.00,,2013-07-18 00:43:00,
2013-07-17 19:52:00,86.0,62.0,28.61,SW,216,0.0,3.0,45,0.00,,,0.00,,2013-07-18 00:52:00,
2013-07-17 20:01:00,85.0,63.0,28.61,SW,216,0.0,3.0,48,0.00,,,0.00,,2013-07-18 01:01:00,
2013-07-17 20:11:00,85.0,63.0,28.61,SW,216,0.0,3.0,48,0.00,,,0.00,,2013-07-18 01:11:00,
2013-07-17 20:22:00,84.0,64.0,28.61,SW,216,0.0,0.0,51,0.00,,,0.00,,2013-07-18 01:22:00,
2013-07-17 20:32:00,84.0,64.0,28.61,SW,216,0.0,0.0,51,0.00,,,0.00,,2013-07-18 01:32:00,
2013-07-17 20:42:00,83.0,63.0,28.61,SSW,204,0.0,5.0,51,0.00,,,0.00,,2013-07-18 01:42:00,
2013-07-17 20:53:00,83.0,63.0,28.61,SSW,204,0.0,5.0,51,0.00,,,0.00,,2013-07-18 01:53:00,
2013-07-17 21:01:00,83.0,63.0,28.61,SSW,204,0.0,5.0,51,0.00,,,0.00,,2013-07-18 02:01:00,
2013-07-17 21:11:00,81.0,63.0,28.61,South,172,0.0,5.0,54,0.00,,,0.00,,2013-07-18 02:11:00,
2013-07-17 21:21:00,81.0,62.0,28.61,South,172,0.0,0.0,53,0.00,,,0.00,,2013-07-18 02:21:00,
2013-07-17 21:32:00,81.0,62.0,28.61,South,172,0.0,0.0,53,0.00,,,0.00,,2013-07-18 02:32:00,
2013-07-17 21:43:00,81.0,62.0,28.61,South,172,0.0,0.0,53,0.00,,,0.00,,2013-07-18 02:43:00,
2013-07-17 21:52:00,79.0,62.0,28.61,South,172,0.0,0.0,56,0.00,,,0.00,,2013-07-18 02:52:00,
2013-07-17 22:01:00,79.0,62.0,28.61,South,172,0.0,0.0,56,0.00,,,0.00,,2013-07-18 03:01:00,
2013-07-17 22:11:00,78.0,63.0,28.61,South,172,0.0,0.0,60,0.00,,,0.00,,2013-07-18 03:11:00,
2013-07-17 22:22:00,78.0,63.0,28.61,South,172,0.0,0.0,60,0.00,,,0.00,,2013-07-18 03:22:00,
2013-07-17 22:32:00,78.0,63.0,28.61,South,172,0.0,0.0,60,0.00,,,0.00,,2013-07-18 03:32:00,
2013-07-17 22:43:00,76.0,63.0,28.64,South,171,0.0,0.0,65,0.00,,,0.00,,2013-07-18 03:43:00,
2013-07-17 22:52:00,76.0,63.0,28.64,South,171,0.0,0.0,65,0.00,,,0.00,,2013-07-18 03:52:00,
2013-07-17 23:02:00,76.0,64.0,28.64,South,171,0.0,0.0,66,0.00,,,0.00,,2013-07-18 04:02:00,
2013-07-17 23:12:00,75.0,63.0,28.61,South,171,0.0,0.0,67,0.00,,,0.00,,2013-07-18 04:12:00,
2013-07-17 23:22:00,75.0,63.0,28.61,South,171,0.0,0.0,67,0.00,,,0.00,,2013-07-18 04:22:00,
2013-07-17 23:32:00,75.0,64.0,28.61,South,171,0.0,0.0,69,0.00,,,0.00,,2013-07-18 04:32:00,
2013-07-17 23:43:00,75.0,64.0,28.61,South,171,0.0,0.0,69,0.00,,,0.00,,2013-07-18 04:43:00,
2013-07-17 23:52:00,74.0,64.0,28.61,South,171,0.0,0.0,71,0.00,,,0.00,,2013-07-18 04:52:00,